sensor_id;sensor_type;location;lat;lon;timestamp;temperature;humidity
67064;SHT30;58476;48.072;11.970;2023-06-22T00:00:25;26.83;53.68
67064;SHT30;58476;48.072;11.970;2023-06-22T00:02:50;26.80;53.85
67064;SHT30;58476;48.072;11.970;2023-06-22T00:05:15;26.80;53.90
67064;SHT30;58476;48.072;11.970;2023-06-22T00:07:40;26.79;53.97
67064;SHT30;58476;48.072;11.970;2023-06-22T00:10:06;26.77;53.96
67064;SHT30;58476;48.072;11.970;2023-06-22T00:12:32;26.74;53.65
67064;SHT30;58476;48.072;11.970;2023-06-22T00:14:57;26.73;54.03
67064;SHT30;58476;48.072;11.970;2023-06-22T00:17:22;26.69;53.83
67064;SHT30;58476;48.072;11.970;2023-06-22T00:19:48;26.67;53.88
67064;SHT30;58476;48.072;11.970;2023-06-22T00:22:13;26.65;53.73
67064;SHT30;58476;48.072;11.970;2023-06-22T00:24:38;26.64;54.01
67064;SHT30;58476;48.072;11.970;2023-06-22T00:27:04;26.61;53.98
67064;SHT30;58476;48.072;11.970;2023-06-22T00:29:30;26.59;54.26
67064;SHT30;58476;48.072;11.970;2023-06-22T00:31:56;26.59;54.27
67064;SHT30;58476;48.072;11.970;2023-06-22T00:34:21;26.59;53.95
67064;SHT30;58476;48.072;11.970;2023-06-22T00:36:47;26.59;54.17
67064;SHT30;58476;48.072;11.970;2023-06-22T00:39:13;26.54;54.36
67064;SHT30;58476;48.072;11.970;2023-06-22T00:41:38;26.54;54.38
67064;SHT30;58476;48.072;11.970;2023-06-22T00:44:03;26.56;54.41
67064;SHT30;58476;48.072;11.970;2023-06-22T00:46:30;26.53;54.39
67064;SHT30;58476;48.072;11.970;2023-06-22T00:48:55;26.49;54.44
67064;SHT30;58476;48.072;11.970;2023-06-22T00:51:21;26.52;54.38
67064;SHT30;58476;48.072;11.970;2023-06-22T00:53:46;26.49;54.26
67064;SHT30;58476;48.072;11.970;2023-06-22T00:56:11;26.49;54.38
67064;SHT30;58476;48.072;11.970;2023-06-22T00:58:37;26.46;54.49
67064;SHT30;58476;48.072;11.970;2023-06-22T01:01:02;26.43;54.50
67064;SHT30;58476;48.072;11.970;2023-06-22T01:03:28;26.43;54.24
67064;SHT30;58476;48.072;11.970;2023-06-22T01:06:00;26.43;54.53
67064;SHT30;58476;48.072;11.970;2023-06-22T01:11:26;26.40;54.55
67064;SHT30;58476;48.072;11.970;2023-06-22T01:14:19;26.39;54.53
67064;SHT30;58476;48.072;11.970;2023-06-22T01:16:47;26.36;54.62
67064;SHT30;58476;48.072;11.970;2023-06-22T01:22:03;26.35;54.17
67064;SHT30;58476;48.072;11.970;2023-06-22T01:24:40;26.39;54.29
67064;SHT30;58476;48.072;11.970;2023-06-22T01:27:13;26.40;54.11
67064;SHT30;58476;48.072;11.970;2023-06-22T01:29:43;26.44;54.10
67064;SHT30;58476;48.072;11.970;2023-06-22T01:32:09;26.47;54.01
67064;SHT30;58476;48.072;11.970;2023-06-22T01:34:36;26.47;53.93
67064;SHT30;58476;48.072;11.970;2023-06-22T01:37:03;26.47;53.84
67064;SHT30;58476;48.072;11.970;2023-06-22T01:39:29;26.50;53.88
67064;SHT30;58476;48.072;11.970;2023-06-22T01:41:54;26.52;53.79
67064;SHT30;58476;48.072;11.970;2023-06-22T01:44:20;26.54;53.80
67064;SHT30;58476;48.072;11.970;2023-06-22T01:46:48;26.54;53.78
67064;SHT30;58476;48.072;11.970;2023-06-22T01:49:14;26.54;53.70
67064;SHT30;58476;48.072;11.970;2023-06-22T01:51:40;26.56;53.72
67064;SHT30;58476;48.072;11.970;2023-06-22T01:54:06;26.56;53.57
67064;SHT30;58476;48.072;11.970;2023-06-22T01:56:32;26.59;53.59
67064;SHT30;58476;48.072;11.970;2023-06-22T01:59:15;26.57;53.54
67064;SHT30;58476;48.072;11.970;2023-06-22T02:01:47;26.56;53.53
67064;SHT30;58476;48.072;11.970;2023-06-22T02:04:23;26.54;53.62
67064;SHT30;58476;48.072;11.970;2023-06-22T02:06:51;26.54;53.51
67064;SHT30;58476;48.072;11.970;2023-06-22T02:09:20;26.54;53.66
67064;SHT30;58476;48.072;11.970;2023-06-22T02:11:47;26.52;53.69
67064;SHT30;58476;48.072;11.970;2023-06-22T02:14:13;26.54;53.61
67064;SHT30;58476;48.072;11.970;2023-06-22T02:16:40;26.54;53.61
67064;SHT30;58476;48.072;11.970;2023-06-22T02:19:05;26.53;53.61
67064;SHT30;58476;48.072;11.970;2023-06-22T02:21:34;26.52;53.66
67064;SHT30;58476;48.072;11.970;2023-06-22T02:23:59;26.53;53.56
67064;SHT30;58476;48.072;11.970;2023-06-22T02:26:25;26.52;53.67
67064;SHT30;58476;48.072;11.970;2023-06-22T02:28:52;26.52;53.66
67064;SHT30;58476;48.072;11.970;2023-06-22T02:31:18;26.50;53.74
67064;SHT30;58476;48.072;11.970;2023-06-22T02:33:44;26.52;53.65
67064;SHT30;58476;48.072;11.970;2023-06-22T02:36:10;26.53;53.69
67064;SHT30;58476;48.072;11.970;2023-06-22T02:38:35;26.50;53.63
67064;SHT30;58476;48.072;11.970;2023-06-22T02:41:01;26.49;53.67
67064;SHT30;58476;48.072;11.970;2023-06-22T02:43:26;26.44;53.69
67064;SHT30;58476;48.072;11.970;2023-06-22T02:45:51;26.43;53.82
67064;SHT30;58476;48.072;11.970;2023-06-22T02:48:17;26.40;53.88
67064;SHT30;58476;48.072;11.970;2023-06-22T02:50:42;26.39;54.03
67064;SHT30;58476;48.072;11.970;2023-06-22T02:53:07;26.35;54.12
67064;SHT30;58476;48.072;11.970;2023-06-22T02:55:36;26.33;54.20
67064;SHT30;58476;48.072;11.970;2023-06-22T02:58:02;26.32;54.30
67064;SHT30;58476;48.072;11.970;2023-06-22T03:00:30;26.29;54.38
67064;SHT30;58476;48.072;11.970;2023-06-22T03:02:57;26.26;54.46
67064;SHT30;58476;48.072;11.970;2023-06-22T03:05:23;26.25;54.42
67064;SHT30;58476;48.072;11.970;2023-06-22T03:07:48;26.25;54.52
67064;SHT30;58476;48.072;11.970;2023-06-22T03:10:15;26.25;54.47
67064;SHT30;58476;48.072;11.970;2023-06-22T03:12:42;26.21;54.62
67064;SHT30;58476;48.072;11.970;2023-06-22T03:15:09;26.18;54.60
67064;SHT30;58476;48.072;11.970;2023-06-22T03:17:36;26.18;54.66
67064;SHT30;58476;48.072;11.970;2023-06-22T03:20:03;26.19;54.75
67064;SHT30;58476;48.072;11.970;2023-06-22T03:22:28;26.18;54.69
67064;SHT30;58476;48.072;11.970;2023-06-22T03:24:53;26.16;54.67
67064;SHT30;58476;48.072;11.970;2023-06-22T03:27:19;26.15;54.68
67064;SHT30;58476;48.072;11.970;2023-06-22T03:29:45;26.13;54.73
67064;SHT30;58476;48.072;11.970;2023-06-22T03:32:10;26.13;54.77
67064;SHT30;58476;48.072;11.970;2023-06-22T03:34:36;26.12;54.75
67064;SHT30;58476;48.072;11.970;2023-06-22T03:37:01;26.12;54.90
67064;SHT30;58476;48.072;11.970;2023-06-22T03:39:27;26.11;54.85
67064;SHT30;58476;48.072;11.970;2023-06-22T03:41:52;26.08;54.88
67064;SHT30;58476;48.072;11.970;2023-06-22T03:44:18;26.08;54.98
67064;SHT30;58476;48.072;11.970;2023-06-22T03:46:43;26.05;54.95
67064;SHT30;58476;48.072;11.970;2023-06-22T03:49:08;26.05;54.99
67064;SHT30;58476;48.072;11.970;2023-06-22T03:51:34;26.02;54.95
67064;SHT30;58476;48.072;11.970;2023-06-22T03:53:59;26.01;55.02
67064;SHT30;58476;48.072;11.970;2023-06-22T03:56:24;26.02;54.97
67064;SHT30;58476;48.072;11.970;2023-06-22T03:58:50;26.02;55.03
67064;SHT30;58476;48.072;11.970;2023-06-22T04:01:15;26.01;54.62
67064;SHT30;58476;48.072;11.970;2023-06-22T04:03:41;25.92;54.59
67064;SHT30;58476;48.072;11.970;2023-06-22T04:06:06;25.85;53.72
67064;SHT30;58476;48.072;11.970;2023-06-22T04:08:31;25.78;53.79
67064;SHT30;58476;48.072;11.970;2023-06-22T04:10:57;25.68;53.78
67064;SHT30;58476;48.072;11.970;2023-06-22T04:13:22;25.63;53.93
67064;SHT30;58476;48.072;11.970;2023-06-22T04:15:47;25.50;54.46
67064;SHT30;58476;48.072;11.970;2023-06-22T04:18:13;25.51;54.39
67064;SHT30;58476;48.072;11.970;2023-06-22T04:20:38;25.48;54.47
67064;SHT30;58476;48.072;11.970;2023-06-22T04:23:04;25.45;54.42
67064;SHT30;58476;48.072;11.970;2023-06-22T04:25:29;25.44;54.55
67064;SHT30;58476;48.072;11.970;2023-06-22T04:27:54;25.43;54.62
67064;SHT30;58476;48.072;11.970;2023-06-22T04:30:20;25.27;55.15
67064;SHT30;58476;48.072;11.970;2023-06-22T04:32:45;25.26;55.18
67064;SHT30;58476;48.072;11.970;2023-06-22T04:35:11;25.20;55.40
67064;SHT30;58476;48.072;11.970;2023-06-22T04:37:37;25.20;55.44
67064;SHT30;58476;48.072;11.970;2023-06-22T04:40:02;25.22;55.39
67064;SHT30;58476;48.072;11.970;2023-06-22T04:42:27;25.24;55.21
67064;SHT30;58476;48.072;11.970;2023-06-22T04:44:53;25.19;55.37
67064;SHT30;58476;48.072;11.970;2023-06-22T04:47:18;25.20;55.37
67064;SHT30;58476;48.072;11.970;2023-06-22T04:49:44;25.12;55.74
67064;SHT30;58476;48.072;11.970;2023-06-22T04:52:11;25.06;56.16
67064;SHT30;58476;48.072;11.970;2023-06-22T04:54:38;25.03;56.41
67064;SHT30;58476;48.072;11.970;2023-06-22T04:57:06;25.00;56.57
67064;SHT30;58476;48.072;11.970;2023-06-22T04:59:31;25.03;56.31
67064;SHT30;58476;48.072;11.970;2023-06-22T05:01:59;25.04;56.24
67064;SHT30;58476;48.072;11.970;2023-06-22T05:04:25;25.03;56.42
67064;SHT30;58476;48.072;11.970;2023-06-22T05:06:51;25.02;56.70
67064;SHT30;58476;48.072;11.970;2023-06-22T05:09:17;24.94;56.82
67064;SHT30;58476;48.072;11.970;2023-06-22T05:11:46;24.85;57.02
67064;SHT30;58476;48.072;11.970;2023-06-22T05:14:12;24.83;57.06
67064;SHT30;58476;48.072;11.970;2023-06-22T05:16:38;24.86;57.08
67064;SHT30;58476;48.072;11.970;2023-06-22T05:19:04;24.87;57.08
67064;SHT30;58476;48.072;11.970;2023-06-22T05:21:30;24.82;57.31
67064;SHT30;58476;48.072;11.970;2023-06-22T05:23:56;24.82;57.28
67064;SHT30;58476;48.072;11.970;2023-06-22T05:26:22;24.82;57.25
67064;SHT30;58476;48.072;11.970;2023-06-22T05:28:48;24.79;57.36
67064;SHT30;58476;48.072;11.970;2023-06-22T05:31:14;24.79;57.38
67064;SHT30;58476;48.072;11.970;2023-06-22T05:33:43;24.75;57.25
67064;SHT30;58476;48.072;11.970;2023-06-22T05:36:09;24.73;57.35
67064;SHT30;58476;48.072;11.970;2023-06-22T05:38:34;24.76;57.42
67064;SHT30;58476;48.072;11.970;2023-06-22T05:40:59;24.69;57.60
67064;SHT30;58476;48.072;11.970;2023-06-22T05:43:25;24.73;57.58
67064;SHT30;58476;48.072;11.970;2023-06-22T05:45:50;24.73;57.76
67064;SHT30;58476;48.072;11.970;2023-06-22T05:48:15;24.73;57.71
67064;SHT30;58476;48.072;11.970;2023-06-22T05:50:42;24.72;58.10
67064;SHT30;58476;48.072;11.970;2023-06-22T05:53:07;24.75;58.66
67064;SHT30;58476;48.072;11.970;2023-06-22T05:55:32;24.75;58.69
67064;SHT30;58476;48.072;11.970;2023-06-22T05:57:59;24.59;58.72
67064;SHT30;58476;48.072;11.970;2023-06-22T06:00:24;24.68;58.39
67064;SHT30;58476;48.072;11.970;2023-06-22T06:02:50;24.64;58.55
67064;SHT30;58476;48.072;11.970;2023-06-22T06:05:16;24.66;58.57
67064;SHT30;58476;48.072;11.970;2023-06-22T06:07:42;24.65;58.82
67064;SHT30;58476;48.072;11.970;2023-06-22T06:10:08;24.66;58.87
67064;SHT30;58476;48.072;11.970;2023-06-22T06:12:34;24.69;58.65
67064;SHT30;58476;48.072;11.970;2023-06-22T06:14:59;24.65;59.12
67064;SHT30;58476;48.072;11.970;2023-06-22T06:17:24;24.66;58.97
67064;SHT30;58476;48.072;11.970;2023-06-22T06:19:50;24.69;58.84
67064;SHT30;58476;48.072;11.970;2023-06-22T06:22:15;24.71;58.77
67064;SHT30;58476;48.072;11.970;2023-06-22T06:24:40;24.66;59.04
67064;SHT30;58476;48.072;11.970;2023-06-22T06:27:06;24.72;59.20
67064;SHT30;58476;48.072;11.970;2023-06-22T06:29:32;24.73;59.11
67064;SHT30;58476;48.072;11.970;2023-06-22T06:31:57;24.77;58.99
67064;SHT30;58476;48.072;11.970;2023-06-22T06:34:22;24.75;59.14
67064;SHT30;58476;48.072;11.970;2023-06-22T06:36:48;24.77;59.00
67064;SHT30;58476;48.072;11.970;2023-06-22T06:39:14;24.76;59.00
67064;SHT30;58476;48.072;11.970;2023-06-22T06:41:39;24.77;58.88
67064;SHT30;58476;48.072;11.970;2023-06-22T06:44:13;24.85;58.72
67064;SHT30;58476;48.072;11.970;2023-06-22T06:46:39;24.92;58.54
67064;SHT30;58476;48.072;11.970;2023-06-22T06:49:04;24.99;58.39
67064;SHT30;58476;48.072;11.970;2023-06-22T06:51:29;25.02;58.62
67064;SHT30;58476;48.072;11.970;2023-06-22T06:53:55;25.00;58.83
67064;SHT30;58476;48.072;11.970;2023-06-22T06:56:20;25.09;58.65
67064;SHT30;58476;48.072;11.970;2023-06-22T06:58:46;25.10;58.75
67064;SHT30;58476;48.072;11.970;2023-06-22T07:01:12;25.06;58.88
67064;SHT30;58476;48.072;11.970;2023-06-22T07:03:38;25.12;58.83
67064;SHT30;58476;48.072;11.970;2023-06-22T07:06:03;25.16;58.95
67064;SHT30;58476;48.072;11.970;2023-06-22T07:08:29;25.16;59.08
67064;SHT30;58476;48.072;11.970;2023-06-22T07:10:54;25.22;59.01
67064;SHT30;58476;48.072;11.970;2023-06-22T07:13:20;25.23;59.03
67064;SHT30;58476;48.072;11.970;2023-06-22T07:15:45;25.26;59.08
67064;SHT30;58476;48.072;11.970;2023-06-22T07:18:11;25.30;59.20
67064;SHT30;58476;48.072;11.970;2023-06-22T07:20:36;25.24;59.24
67064;SHT30;58476;48.072;11.970;2023-06-22T07:23:01;25.27;59.11
67064;SHT30;58476;48.072;11.970;2023-06-22T07:25:27;25.27;59.56
67064;SHT30;58476;48.072;11.970;2023-06-22T07:28:03;25.30;59.33
67064;SHT30;58476;48.072;11.970;2023-06-22T07:30:29;25.35;59.05
67064;SHT30;58476;48.072;11.970;2023-06-22T07:32:55;25.38;59.14
67064;SHT30;58476;48.072;11.970;2023-06-22T07:35:21;25.43;58.87
67064;SHT30;58476;48.072;11.970;2023-06-22T07:37:46;25.45;58.69
67064;SHT30;58476;48.072;11.970;2023-06-22T07:40:12;25.50;58.54
67064;SHT30;58476;48.072;11.970;2023-06-22T07:42:37;25.51;59.15
67064;SHT30;58476;48.072;11.970;2023-06-22T07:45:04;25.51;58.94
67064;SHT30;58476;48.072;11.970;2023-06-22T07:47:29;25.58;58.71
67064;SHT30;58476;48.072;11.970;2023-06-22T07:49:57;25.60;58.75
67064;SHT30;58476;48.072;11.970;2023-06-22T07:52:24;25.64;58.73
67064;SHT30;58476;48.072;11.970;2023-06-22T07:54:49;25.64;58.26
67064;SHT30;58476;48.072;11.970;2023-06-22T07:57:15;25.64;58.98
67064;SHT30;58476;48.072;11.970;2023-06-22T07:59:40;25.61;59.08
67064;SHT30;58476;48.072;11.970;2023-06-22T08:02:05;25.63;59.25
67064;SHT30;58476;48.072;11.970;2023-06-22T08:04:31;25.61;59.69
67064;SHT30;58476;48.072;11.970;2023-06-22T08:06:56;25.61;59.62
67064;SHT30;58476;48.072;11.970;2023-06-22T08:09:21;25.67;59.69
67064;SHT30;58476;48.072;11.970;2023-06-22T08:11:47;25.72;59.55
67064;SHT30;58476;48.072;11.970;2023-06-22T08:14:12;25.74;59.51
67064;SHT30;58476;48.072;11.970;2023-06-22T08:16:37;25.77;59.24
67064;SHT30;58476;48.072;11.970;2023-06-22T08:19:03;25.80;59.36
67064;SHT30;58476;48.072;11.970;2023-06-22T08:21:28;25.81;59.51
67064;SHT30;58476;48.072;11.970;2023-06-22T08:23:53;25.92;59.61
67064;SHT30;58476;48.072;11.970;2023-06-22T08:26:19;25.95;59.20
67064;SHT30;58476;48.072;11.970;2023-06-22T08:28:44;25.94;59.01
67064;SHT30;58476;48.072;11.970;2023-06-22T08:31:09;25.95;59.13
67064;SHT30;58476;48.072;11.970;2023-06-22T08:33:34;26.01;58.98
67064;SHT30;58476;48.072;11.970;2023-06-22T08:36:00;26.05;59.15
67064;SHT30;58476;48.072;11.970;2023-06-22T08:38:25;26.11;58.99
67064;SHT30;58476;48.072;11.970;2023-06-22T08:40:51;26.16;58.28
67064;SHT30;58476;48.072;11.970;2023-06-22T08:43:16;26.23;58.37
67064;SHT30;58476;48.072;11.970;2023-06-22T08:45:41;26.31;58.23
67064;SHT30;58476;48.072;11.970;2023-06-22T08:48:07;26.31;57.85
67064;SHT30;58476;48.072;11.970;2023-06-22T08:50:32;26.37;57.40
67064;SHT30;58476;48.072;11.970;2023-06-22T08:52:58;26.44;57.84
67064;SHT30;58476;48.072;11.970;2023-06-22T08:55:23;26.46;57.39
67064;SHT30;58476;48.072;11.970;2023-06-22T08:57:48;26.50;57.49
67064;SHT30;58476;48.072;11.970;2023-06-22T09:00:14;26.60;57.87
67064;SHT30;58476;48.072;11.970;2023-06-22T09:02:39;26.63;57.55
67064;SHT30;58476;48.072;11.970;2023-06-22T09:05:05;26.77;57.01
67064;SHT30;58476;48.072;11.970;2023-06-22T09:07:30;26.79;56.91
67064;SHT30;58476;48.072;11.970;2023-06-22T09:09:56;26.88;56.42
67064;SHT30;58476;48.072;11.970;2023-06-22T09:12:21;26.91;56.25
67064;SHT30;58476;48.072;11.970;2023-06-22T09:14:47;27.01;56.24
67064;SHT30;58476;48.072;11.970;2023-06-22T09:17:12;27.02;56.84
67064;SHT30;58476;48.072;11.970;2023-06-22T09:19:38;27.10;56.44
67064;SHT30;58476;48.072;11.970;2023-06-22T09:22:03;27.21;55.57
67064;SHT30;58476;48.072;11.970;2023-06-22T09:24:29;27.34;54.92
67064;SHT30;58476;48.072;11.970;2023-06-22T09:26:54;27.38;55.00
67064;SHT30;58476;48.072;11.970;2023-06-22T09:29:19;27.41;54.54
67064;SHT30;58476;48.072;11.970;2023-06-22T09:31:45;27.38;54.82
67064;SHT30;58476;48.072;11.970;2023-06-22T09:34:10;27.46;54.60
67064;SHT30;58476;48.072;11.970;2023-06-22T09:36:35;27.61;54.13
67064;SHT30;58476;48.072;11.970;2023-06-22T09:39:01;27.66;54.26
67064;SHT30;58476;48.072;11.970;2023-06-22T09:41:26;27.74;54.16
67064;SHT30;58476;48.072;11.970;2023-06-22T09:43:51;27.76;54.00
67064;SHT30;58476;48.072;11.970;2023-06-22T09:46:17;27.83;54.19
67064;SHT30;58476;48.072;11.970;2023-06-22T09:48:42;27.76;54.24
67064;SHT30;58476;48.072;11.970;2023-06-22T09:51:08;27.65;54.59
67064;SHT30;58476;48.072;11.970;2023-06-22T09:53:33;27.49;54.88
67064;SHT30;58476;48.072;11.970;2023-06-22T09:55:59;27.35;55.29
67064;SHT30;58476;48.072;11.970;2023-06-22T09:58:24;27.27;55.71
67064;SHT30;58476;48.072;11.970;2023-06-22T10:00:49;27.21;55.61
67064;SHT30;58476;48.072;11.970;2023-06-22T10:03:14;27.10;55.85
67064;SHT30;58476;48.072;11.970;2023-06-22T10:05:40;27.07;55.97
67064;SHT30;58476;48.072;11.970;2023-06-22T10:08:05;27.05;56.11
67064;SHT30;58476;48.072;11.970;2023-06-22T10:10:30;27.05;56.14
67064;SHT30;58476;48.072;11.970;2023-06-22T10:12:57;27.02;56.20
67064;SHT30;58476;48.072;11.970;2023-06-22T10:15:23;27.00;56.25
67064;SHT30;58476;48.072;11.970;2023-06-22T10:17:49;26.95;56.41
67064;SHT30;58476;48.072;11.970;2023-06-22T10:20:14;26.95;56.36
67064;SHT30;58476;48.072;11.970;2023-06-22T10:22:44;26.95;56.33
67064;SHT30;58476;48.072;11.970;2023-06-22T10:25:10;26.93;56.29
67064;SHT30;58476;48.072;11.970;2023-06-22T10:27:36;26.94;56.35
67064;SHT30;58476;48.072;11.970;2023-06-22T10:30:02;26.93;56.32
67064;SHT30;58476;48.072;11.970;2023-06-22T10:32:27;26.91;56.53
67064;SHT30;58476;48.072;11.970;2023-06-22T10:34:53;26.91;56.47
67064;SHT30;58476;48.072;11.970;2023-06-22T10:37:18;26.90;56.50
67064;SHT30;58476;48.072;11.970;2023-06-22T10:39:43;26.88;56.50
67064;SHT30;58476;48.072;11.970;2023-06-22T10:42:09;26.88;56.55
67064;SHT30;58476;48.072;11.970;2023-06-22T10:44:34;26.88;56.61
67064;SHT30;58476;48.072;11.970;2023-06-22T10:47:00;26.84;56.64
67064;SHT30;58476;48.072;11.970;2023-06-22T10:49:25;26.83;56.69
67064;SHT30;58476;48.072;11.970;2023-06-22T10:51:50;26.83;56.61
67064;SHT30;58476;48.072;11.970;2023-06-22T10:54:16;26.79;56.74
67064;SHT30;58476;48.072;11.970;2023-06-22T10:56:41;26.71;56.79
67064;SHT30;58476;48.072;11.970;2023-06-22T10:59:06;26.73;57.02
67064;SHT30;58476;48.072;11.970;2023-06-22T11:01:31;26.70;57.00
67064;SHT30;58476;48.072;11.970;2023-06-22T11:03:57;26.69;57.00
67064;SHT30;58476;48.072;11.970;2023-06-22T11:06:22;26.65;57.01
67064;SHT30;58476;48.072;11.970;2023-06-22T11:08:48;26.65;57.08
67064;SHT30;58476;48.072;11.970;2023-06-22T11:11:13;26.63;57.19
67064;SHT30;58476;48.072;11.970;2023-06-22T11:13:38;26.61;57.19
67064;SHT30;58476;48.072;11.970;2023-06-22T11:16:04;26.61;57.17
67064;SHT30;58476;48.072;11.970;2023-06-22T11:18:31;26.60;57.06
67064;SHT30;58476;48.072;11.970;2023-06-22T11:20:56;26.60;57.03
67064;SHT30;58476;48.072;11.970;2023-06-22T11:23:22;26.61;56.99
67064;SHT30;58476;48.072;11.970;2023-06-22T11:25:47;26.63;57.03
67064;SHT30;58476;48.072;11.970;2023-06-22T11:28:12;26.61;57.03
67064;SHT30;58476;48.072;11.970;2023-06-22T11:30:38;26.60;57.14
67064;SHT30;58476;48.072;11.970;2023-06-22T11:33:03;26.59;57.20
67064;SHT30;58476;48.072;11.970;2023-06-22T11:35:28;26.60;57.22
67064;SHT30;58476;48.072;11.970;2023-06-22T11:37:54;26.61;57.48
67064;SHT30;58476;48.072;11.970;2023-06-22T11:40:19;26.60;57.90
67064;SHT30;58476;48.072;11.970;2023-06-22T11:42:44;26.63;58.24
67064;SHT30;58476;48.072;11.970;2023-06-22T11:45:10;26.63;58.42
67064;SHT30;58476;48.072;11.970;2023-06-22T11:47:35;26.67;58.52
67064;SHT30;58476;48.072;11.970;2023-06-22T11:50:01;26.71;58.47
67064;SHT30;58476;48.072;11.970;2023-06-22T11:52:26;26.77;58.17
67064;SHT30;58476;48.072;11.970;2023-06-22T11:54:51;26.83;58.20
67064;SHT30;58476;48.072;11.970;2023-06-22T11:57:17;26.86;57.92
67064;SHT30;58476;48.072;11.970;2023-06-22T11:59:42;26.87;57.84
67064;SHT30;58476;48.072;11.970;2023-06-22T12:02:07;26.90;57.71
67064;SHT30;58476;48.072;11.970;2023-06-22T12:04:32;26.93;57.70
67064;SHT30;58476;48.072;11.970;2023-06-22T12:06:58;26.94;57.69
67064;SHT30;58476;48.072;11.970;2023-06-22T12:09:23;27.02;58.43
67064;SHT30;58476;48.072;11.970;2023-06-22T12:11:49;27.08;58.56
67064;SHT30;58476;48.072;11.970;2023-06-22T12:14:14;27.14;58.25
67064;SHT30;58476;48.072;11.970;2023-06-22T12:16:39;27.16;57.89
67064;SHT30;58476;48.072;11.970;2023-06-22T12:19:05;27.14;57.94
67064;SHT30;58476;48.072;11.970;2023-06-22T12:21:30;27.14;57.90
67064;SHT30;58476;48.072;11.970;2023-06-22T12:23:55;27.12;57.80
67064;SHT30;58476;48.072;11.970;2023-06-22T12:26:21;27.18;58.03
67064;SHT30;58476;48.072;11.970;2023-06-22T12:28:47;27.14;57.92
67064;SHT30;58476;48.072;11.970;2023-06-22T12:31:13;27.15;57.86
67064;SHT30;58476;48.072;11.970;2023-06-22T12:33:39;27.15;57.82
67064;SHT30;58476;48.072;11.970;2023-06-22T12:36:04;27.16;57.80
67064;SHT30;58476;48.072;11.970;2023-06-22T12:38:30;27.18;57.80
67064;SHT30;58476;48.072;11.970;2023-06-22T12:40:55;27.20;57.73
67064;SHT30;58476;48.072;11.970;2023-06-22T12:43:20;27.25;57.56
67064;SHT30;58476;48.072;11.970;2023-06-22T12:45:46;27.41;57.17
67064;SHT30;58476;48.072;11.970;2023-06-22T12:48:11;27.52;56.38
67064;SHT30;58476;48.072;11.970;2023-06-22T12:50:36;27.59;56.24
67064;SHT30;58476;48.072;11.970;2023-06-22T12:53:01;27.59;56.49
67064;SHT30;58476;48.072;11.970;2023-06-22T12:55:27;27.63;56.38
67064;SHT30;58476;48.072;11.970;2023-06-22T12:57:52;27.62;56.34
67064;SHT30;58476;48.072;11.970;2023-06-22T13:00:18;27.65;56.64
67064;SHT30;58476;48.072;11.970;2023-06-22T13:02:43;27.63;56.46
67064;SHT30;58476;48.072;11.970;2023-06-22T13:05:08;27.61;57.13
67064;SHT30;58476;48.072;11.970;2023-06-22T13:07:34;27.59;56.98
67064;SHT30;58476;48.072;11.970;2023-06-22T13:09:59;27.61;57.17
67064;SHT30;58476;48.072;11.970;2023-06-22T13:12:24;27.56;57.47
67064;SHT30;58476;48.072;11.970;2023-06-22T13:14:50;27.56;57.44
67064;SHT30;58476;48.072;11.970;2023-06-22T13:17:15;27.61;57.31
67064;SHT30;58476;48.072;11.970;2023-06-22T13:19:40;27.58;57.24
67064;SHT30;58476;48.072;11.970;2023-06-22T13:22:31;27.55;58.01
67064;SHT30;58476;48.072;11.970;2023-06-22T13:24:58;27.52;57.61
67064;SHT30;58476;48.072;11.970;2023-06-22T13:27:24;27.51;57.72
67064;SHT30;58476;48.072;11.970;2023-06-22T13:29:49;27.49;57.54
67064;SHT30;58476;48.072;11.970;2023-06-22T13:32:14;27.45;57.98
67064;SHT30;58476;48.072;11.970;2023-06-22T13:34:40;27.45;57.83
67064;SHT30;58476;48.072;11.970;2023-06-22T13:37:05;27.43;57.78
67064;SHT30;58476;48.072;11.970;2023-06-22T13:39:31;27.45;57.73
67064;SHT30;58476;48.072;11.970;2023-06-22T13:41:57;27.43;57.83
67064;SHT30;58476;48.072;11.970;2023-06-22T13:44:23;27.39;57.97
67064;SHT30;58476;48.072;11.970;2023-06-22T13:46:48;27.34;57.96
67064;SHT30;58476;48.072;11.970;2023-06-22T13:49:13;27.34;57.82
67064;SHT30;58476;48.072;11.970;2023-06-22T13:51:38;27.31;57.64
67064;SHT30;58476;48.072;11.970;2023-06-22T13:54:04;27.28;57.74
67064;SHT30;58476;48.072;11.970;2023-06-22T13:56:29;27.25;57.68
67064;SHT30;58476;48.072;11.970;2023-06-22T13:58:55;27.22;57.77
67064;SHT30;58476;48.072;11.970;2023-06-22T14:01:20;27.24;58.05
67064;SHT30;58476;48.072;11.970;2023-06-22T14:03:47;27.21;57.67
67064;SHT30;58476;48.072;11.970;2023-06-22T14:06:13;27.18;57.70
67064;SHT30;58476;48.072;11.970;2023-06-22T14:08:38;27.16;57.65
67064;SHT30;58476;48.072;11.970;2023-06-22T14:11:03;27.18;57.67
67064;SHT30;58476;48.072;11.970;2023-06-22T14:13:29;27.21;57.67
67064;SHT30;58476;48.072;11.970;2023-06-22T14:15:54;27.24;57.46
67064;SHT30;58476;48.072;11.970;2023-06-22T14:18:19;27.28;57.30
67064;SHT30;58476;48.072;11.970;2023-06-22T14:20:45;27.30;57.28
67064;SHT30;58476;48.072;11.970;2023-06-22T14:23:10;27.34;57.13
67064;SHT30;58476;48.072;11.970;2023-06-22T14:25:35;27.38;57.07
67064;SHT30;58476;48.072;11.970;2023-06-22T14:28:01;27.38;56.97
67064;SHT30;58476;48.072;11.970;2023-06-22T14:30:26;27.39;56.93
67064;SHT30;58476;48.072;11.970;2023-06-22T14:32:51;27.42;56.86
67064;SHT30;58476;48.072;11.970;2023-06-22T14:35:17;27.45;56.80
67064;SHT30;58476;48.072;11.970;2023-06-22T14:37:42;27.45;56.77
67064;SHT30;58476;48.072;11.970;2023-06-22T14:40:07;27.45;56.72
67064;SHT30;58476;48.072;11.970;2023-06-22T14:42:33;27.48;56.63
67064;SHT30;58476;48.072;11.970;2023-06-22T14:44:58;27.46;56.61
67064;SHT30;58476;48.072;11.970;2023-06-22T14:47:24;27.48;56.58
67064;SHT30;58476;48.072;11.970;2023-06-22T14:49:49;27.48;56.54
67064;SHT30;58476;48.072;11.970;2023-06-22T14:52:14;27.49;56.52
67064;SHT30;58476;48.072;11.970;2023-06-22T14:54:40;27.52;56.37
67064;SHT30;58476;48.072;11.970;2023-06-22T14:57:05;27.59;57.55
67064;SHT30;58476;48.072;11.970;2023-06-22T14:59:30;27.66;57.31
67064;SHT30;58476;48.072;11.970;2023-06-22T15:01:56;27.67;56.82
67064;SHT30;58476;48.072;11.970;2023-06-22T15:04:21;27.67;56.82
67064;SHT30;58476;48.072;11.970;2023-06-22T15:06:47;27.69;57.13
67064;SHT30;58476;48.072;11.970;2023-06-22T15:09:12;27.72;57.03
67064;SHT30;58476;48.072;11.970;2023-06-22T15:11:37;27.69;56.91